createdAt,value
2023-01-08T00:01:45.004Z,4.74
2023-01-08T00:04:18.048Z,4.76
2023-01-08T00:06:49.926Z,4.74
2023-01-08T00:09:21.766Z,4.73
2023-01-08T00:11:53.602Z,4.62
2023-01-08T00:14:25.499Z,4.49
2023-01-08T00:16:57.364Z,4.38
2023-01-08T00:19:29.768Z,4.31
2023-01-08T00:22:01.545Z,4.33
2023-01-08T00:24:33.380Z,4.37
2023-01-08T00:27:05.211Z,4.41
2023-01-08T00:29:37.574Z,4.45
2023-01-08T00:32:09.422Z,4.48
2023-01-08T00:34:41.241Z,4.52
2023-01-08T00:37:13.105Z,4.53
2023-01-08T00:39:45.274Z,4.54
2023-01-08T00:42:17.119Z,4.58
2023-01-08T00:44:48.988Z,4.60
2023-01-08T00:47:20.796Z,4.64
2023-01-08T00:49:52.669Z,4.64
2023-01-08T00:52:24.441Z,4.66
2023-01-08T00:54:56.283Z,4.66
2023-01-08T00:57:28.169Z,4.68
2023-01-08T01:00:00.030Z,4.66
2023-01-08T01:02:32.100Z,4.67
2023-01-08T01:05:04.098Z,4.66
2023-01-08T01:07:36.095Z,4.65
2023-01-08T01:10:14.873Z,4.67
2023-01-08T01:12:46.950Z,4.64
2023-01-08T01:15:19.856Z,4.61
2023-01-08T01:17:51.623Z,4.57
2023-01-08T01:20:30.965Z,4.52
2023-01-08T01:23:02.817Z,4.46
2023-01-08T01:25:39.424Z,4.44
2023-01-08T01:28:11.264Z,4.43
2023-01-08T01:30:43.168Z,4.41
2023-01-08T01:33:15.168Z,4.41
2023-01-08T01:35:46.996Z,4.40
2023-01-08T01:38:18.928Z,4.37
2023-01-08T01:40:50.717Z,4.35
2023-01-08T01:43:37.858Z,4.33
2023-01-08T01:46:31.971Z,4.29
2023-01-08T01:49:09.762Z,4.27
2023-01-08T01:51:47.511Z,4.25
2023-01-08T01:54:21.177Z,4.23
2023-01-08T01:56:53.309Z,4.22
2023-01-08T01:59:25.298Z,4.22
2023-01-08T02:01:59.261Z,4.21
2023-01-08T02:04:31.203Z,4.21
2023-01-08T02:07:10.048Z,4.18
2023-01-08T02:09:49.319Z,4.18
2023-01-08T02:12:26.413Z,4.15
2023-01-08T02:15:05.198Z,4.13
2023-01-08T02:17:45.976Z,4.13
2023-01-08T02:20:29.453Z,4.13
2023-01-08T02:23:17.858Z,4.15
2023-01-08T02:26:09.363Z,4.18
2023-01-08T02:28:46.114Z,4.19
2023-01-08T02:31:20.044Z,4.20
2023-01-08T02:33:51.974Z,4.21
2023-01-08T02:36:34.059Z,4.21
2023-01-08T02:39:15.989Z,4.23
2023-01-08T02:42:16.626Z,4.22
2023-01-08T02:45:12.702Z,4.22
2023-01-08T02:47:47.802Z,4.21
2023-01-08T02:50:30.586Z,4.21
2023-01-08T02:53:09.226Z,4.21
2023-01-08T02:55:44.221Z,4.18
2023-01-08T02:58:17.015Z,4.17
2023-01-08T03:00:51.702Z,4.18
2023-01-08T03:03:27.220Z,4.17
2023-01-08T03:06:02.929Z,4.17
2023-01-08T03:08:39.624Z,4.16
2023-01-08T03:11:15.307Z,4.17
2023-01-08T03:13:51.615Z,4.18
2023-01-08T03:16:27.813Z,4.18
2023-01-08T03:19:06.805Z,4.17
2023-01-08T03:21:42.561Z,4.17
2023-01-08T03:24:16.650Z,4.17
2023-01-08T03:26:51.650Z,4.19
2023-01-08T03:29:27.062Z,4.18
2023-01-08T03:32:02.605Z,4.16
2023-01-08T03:34:37.941Z,4.18
2023-01-08T03:37:12.222Z,4.19
2023-01-08T03:39:50.881Z,4.21
2023-01-08T03:42:23.829Z,4.21
2023-01-08T03:44:55.777Z,4.22
2023-01-08T03:47:28.750Z,4.24
2023-01-08T03:50:11.290Z,4.26
2023-01-08T03:52:49.920Z,4.27
2023-01-08T03:55:21.899Z,4.29
2023-01-08T03:57:53.965Z,4.30
2023-01-08T04:00:28.985Z,4.28
2023-01-08T04:03:00.861Z,4.26
2023-01-08T04:05:32.757Z,4.26
2023-01-08T04:08:04.718Z,4.24
2023-01-08T04:10:36.553Z,4.24
2023-01-08T04:13:08.393Z,4.23
2023-01-08T04:15:40.238Z,4.19
2023-01-08T04:18:12.407Z,4.18
2023-01-08T04:20:48.000Z,4.17
2023-01-08T04:23:19.860Z,4.16
2023-01-08T04:25:51.661Z,4.16
2023-01-08T04:28:24.880Z,4.16
2023-01-08T04:30:56.754Z,4.18
2023-01-08T04:33:28.664Z,4.18
2023-01-08T04:36:00.565Z,4.17
2023-01-08T04:38:32.526Z,4.17
2023-01-08T04:41:04.895Z,4.17
2023-01-08T04:43:36.765Z,4.16
2023-01-08T04:46:09.192Z,4.16
2023-01-08T04:48:41.090Z,4.14
2023-01-08T04:51:12.893Z,4.14
2023-01-08T04:53:45.650Z,4.14
2023-01-08T04:56:17.484Z,4.12
2023-01-08T04:58:49.283Z,4.09
2023-01-08T05:01:25.936Z,4.09
2023-01-08T05:04:00.009Z,4.03
2023-01-08T05:06:33.121Z,3.96
2023-01-08T05:09:05.113Z,3.94
2023-01-08T05:11:37.523Z,3.95
2023-01-08T05:14:09.455Z,3.95
2023-01-08T05:16:41.321Z,3.96
2023-01-08T05:19:13.228Z,3.97
2023-01-08T05:21:45.014Z,3.97
2023-01-08T05:24:16.900Z,3.98
2023-01-08T05:26:48.803Z,3.93
2023-01-08T05:29:20.684Z,3.91
2023-01-08T05:31:52.740Z,3.91
2023-01-08T05:34:24.630Z,3.90
2023-01-08T05:36:56.486Z,3.90
2023-01-08T05:39:28.366Z,3.90
2023-01-08T05:42:00.197Z,3.88
2023-01-08T05:44:32.234Z,3.85
2023-01-08T05:47:04.106Z,3.83
2023-01-08T05:49:35.939Z,3.82
2023-01-08T05:52:08.304Z,3.81
2023-01-08T05:54:40.333Z,3.80
2023-01-08T05:57:12.133Z,3.79
2023-01-08T05:59:43.929Z,3.78
2023-01-08T06:02:15.769Z,3.77
2023-01-08T06:04:47.960Z,3.76
2023-01-08T06:07:19.774Z,3.75
2023-01-08T06:09:51.643Z,3.74
2023-01-08T06:12:23.487Z,3.70
2023-01-08T06:14:55.388Z,3.70
2023-01-08T06:17:27.311Z,3.71
2023-01-08T06:19:59.293Z,3.72
2023-01-08T06:22:33.386Z,3.72
2023-01-08T06:25:05.970Z,3.71
2023-01-08T06:27:40.419Z,3.72
2023-01-08T06:30:19.779Z,3.74
2023-01-08T06:32:51.631Z,3.76
2023-01-08T06:35:23.399Z,3.78
2023-01-08T06:37:55.549Z,3.78
2023-01-08T06:40:33.876Z,3.76
2023-01-08T06:43:07.346Z,3.77
2023-01-08T06:45:39.339Z,3.81
2023-01-08T06:48:12.748Z,3.87
2023-01-08T06:50:44.599Z,3.91
2023-01-08T06:53:16.423Z,3.94
2023-01-08T06:55:48.272Z,3.96
2023-01-08T06:58:20.090Z,3.97
2023-01-08T07:00:52.044Z,3.98
2023-01-08T07:04:06.586Z,4.04
2023-01-08T07:06:38.478Z,4.03
2023-01-08T07:09:10.356Z,4.04
2023-01-08T07:11:42.372Z,4.07
2023-01-08T07:14:14.157Z,4.07
2023-01-08T07:16:46.014Z,4.09
2023-01-08T07:19:17.910Z,4.09
2023-01-08T07:21:49.804Z,4.11
2023-01-08T07:24:21.630Z,4.11
2023-01-08T07:26:53.526Z,4.12
2023-01-08T07:29:25.384Z,4.14
2023-01-08T07:31:57.259Z,4.16
2023-01-08T07:34:29.063Z,4.20
2023-01-08T07:37:01.032Z,4.24
2023-01-08T07:39:32.907Z,4.29
2023-01-08T07:42:04.847Z,4.32
2023-01-08T07:44:36.751Z,4.36
2023-01-08T07:47:08.695Z,4.39
2023-01-08T07:49:40.555Z,4.42
2023-01-08T07:52:12.650Z,4.45
2023-01-08T07:54:44.836Z,4.48
2023-01-08T07:57:16.694Z,4.54
2023-01-08T07:59:48.580Z,4.59
2023-01-08T08:02:20.431Z,4.68
2023-01-08T08:04:52.374Z,4.79
2023-01-08T08:07:24.604Z,4.89
2023-01-08T08:09:56.430Z,4.99
2023-01-08T08:12:28.281Z,5.10
2023-01-08T08:15:00.128Z,5.18
2023-01-08T08:17:31.998Z,5.26
2023-01-08T08:20:03.823Z,5.35
2023-01-08T08:22:35.780Z,5.41
2023-01-08T08:25:08.575Z,5.44
2023-01-08T08:27:40.472Z,5.47
2023-01-08T08:30:15.617Z,5.49
2023-01-08T08:32:47.421Z,5.57
2023-01-08T08:35:19.405Z,5.62
2023-01-08T08:37:51.914Z,5.69
2023-01-08T08:40:29.886Z,5.78
2023-01-08T08:43:03.065Z,5.86
2023-01-08T08:45:35.004Z,5.93
2023-01-08T08:48:08.643Z,6.00
2023-01-08T08:50:42.261Z,6.08
2023-01-08T08:53:14.263Z,6.15
2023-01-08T08:55:46.092Z,6.21
2023-01-08T08:58:18.327Z,6.30
2023-01-08T09:00:50.370Z,6.36
2023-01-08T09:03:22.317Z,6.43
2023-01-08T09:05:54.160Z,6.45
2023-01-08T09:08:26.010Z,6.48
2023-01-08T09:10:57.879Z,6.50
2023-01-08T09:13:29.736Z,6.55
2023-01-08T09:16:02.158Z,6.60
2023-01-08T09:18:34.104Z,6.66
2023-01-08T09:21:10.204Z,6.69
2023-01-08T09:23:42.122Z,6.73
2023-01-08T09:26:13.990Z,6.81
2023-01-08T09:28:45.842Z,6.87
2023-01-08T09:31:17.780Z,6.88
2023-01-08T09:33:51.352Z,6.90
2023-01-08T09:36:23.187Z,6.92
2023-01-08T09:38:55.103Z,6.94
2023-01-08T09:41:29.958Z,6.91
2023-01-08T09:44:04.663Z,6.86
2023-01-08T09:46:37.653Z,6.87
2023-01-08T09:49:15.804Z,6.85
2023-01-08T09:51:47.816Z,6.82
2023-01-08T09:54:20.552Z,6.82
2023-01-08T09:56:52.523Z,6.87
2023-01-08T09:59:24.807Z,6.92
2023-01-08T10:01:57.475Z,6.94
2023-01-08T10:04:31.120Z,6.98
2023-01-08T10:07:15.912Z,7.03
2023-01-08T10:09:48.179Z,7.05
2023-01-08T10:12:27.541Z,7.05
2023-01-08T10:15:02.739Z,7.05
2023-01-08T10:17:40.765Z,7.02
2023-01-08T10:20:40.525Z,7.02
2023-01-08T10:23:14.545Z,7.05
2023-01-08T10:25:55.776Z,7.11
2023-01-08T10:28:27.420Z,7.18
2023-01-08T10:31:06.018Z,7.24
2023-01-08T10:33:44.649Z,7.33
2023-01-08T10:36:19.426Z,7.42
2023-01-08T10:38:56.148Z,7.53
2023-01-08T10:41:29.543Z,7.60
2023-01-08T10:44:04.352Z,7.66
2023-01-08T10:46:43.320Z,7.71
2023-01-08T10:49:22.139Z,7.77
2023-01-08T10:51:55.832Z,7.79
2023-01-08T10:54:32.730Z,7.81
2023-01-08T10:57:18.532Z,7.84
2023-01-08T10:59:50.473Z,7.90
2023-01-08T11:02:39.007Z,7.96
2023-01-08T11:05:12.397Z,7.98
2023-01-08T11:07:49.068Z,7.96
2023-01-08T11:10:26.951Z,7.98
2023-01-08T11:13:01.428Z,7.97
2023-01-08T11:15:36.432Z,7.93
2023-01-08T11:18:14.267Z,7.93
2023-01-08T11:20:46.642Z,7.94
2023-01-08T11:23:27.117Z,7.93
2023-01-08T11:26:06.370Z,7.93
2023-01-08T11:28:48.485Z,7.92
2023-01-08T11:31:26.807Z,7.92
2023-01-08T11:34:06.957Z,7.92
2023-01-08T11:36:45.426Z,7.95
2023-01-08T11:39:18.342Z,7.97
2023-01-08T11:42:08.742Z,7.95
2023-01-08T11:44:52.316Z,7.93
2023-01-08T11:47:39.876Z,7.94
2023-01-08T11:50:33.296Z,7.93
2023-01-08T11:53:22.505Z,7.97
2023-01-08T11:56:04.089Z,8.00
2023-01-08T11:58:52.647Z,7.99
2023-01-08T12:01:40.264Z,7.94
2023-01-08T12:04:29.977Z,7.92
2023-01-08T12:07:10.430Z,7.92
2023-01-08T12:09:46.304Z,7.94
2023-01-08T12:12:30.620Z,7.95
2023-01-08T12:15:13.632Z,7.94
2023-01-08T12:18:15.873Z,7.96
2023-01-08T12:20:57.864Z,7.96
2023-01-08T12:23:44.734Z,7.95
2023-01-08T12:26:25.430Z,7.96
2023-01-08T12:29:16.070Z,7.94
2023-01-08T12:32:14.195Z,7.97
2023-01-08T12:34:54.698Z,8.02
2023-01-08T12:37:31.436Z,8.04
2023-01-08T12:40:13.772Z,8.10
2023-01-08T12:42:50.206Z,8.17
2023-01-08T12:45:27.031Z,8.24
2023-01-08T12:48:04.652Z,8.28
2023-01-08T12:51:02.739Z,8.33
2023-01-08T12:53:44.952Z,8.34
2023-01-08T12:56:22.407Z,8.36
2023-01-08T12:59:15.837Z,8.36
2023-01-08T13:01:52.264Z,8.36
2023-01-08T13:04:24.615Z,8.34
2023-01-08T13:07:04.285Z,8.30
2023-01-08T13:09:36.264Z,8.29
2023-01-08T13:12:14.394Z,8.28
2023-01-08T13:14:53.591Z,8.25
2023-01-08T13:17:25.529Z,8.23
2023-01-08T13:20:01.542Z,8.19
2023-01-08T13:22:35.314Z,8.15
2023-01-08T13:25:32.231Z,8.12
2023-01-08T13:28:18.541Z,8.07
2023-01-08T13:30:50.461Z,8.05
2023-01-08T13:33:42.068Z,8.04
2023-01-08T13:36:26.490Z,8.03
2023-01-08T13:39:21.451Z,8.02
2023-01-08T13:42:14.862Z,8.04
2023-01-08T13:44:51.614Z,8.02
2023-01-08T13:47:31.044Z,7.98
2023-01-08T13:53:07.443Z,7.90
2023-01-08T13:55:41.186Z,7.90
2023-01-08T13:58:19.538Z,7.87
2023-01-08T14:00:54.450Z,7.87
2023-01-08T14:03:29.131Z,7.86
2023-01-08T14:06:14.660Z,7.84
2023-01-08T14:08:55.619Z,7.82
2023-01-08T14:11:29.732Z,7.81
2023-01-08T14:14:01.985Z,7.78
2023-01-08T14:16:33.989Z,7.76
2023-01-08T14:19:07.589Z,7.77
2023-01-08T14:21:39.721Z,7.77
2023-01-08T14:24:17.838Z,7.75
2023-01-08T14:26:56.756Z,7.72
2023-01-08T14:29:30.879Z,7.72
2023-01-08T14:32:03.532Z,7.73
2023-01-08T14:34:37.930Z,7.73
2023-01-08T14:37:13.745Z,7.70
2023-01-08T14:39:48.512Z,7.66
2023-01-08T14:42:41.227Z,7.65
2023-01-08T14:45:20.904Z,7.66
2023-01-08T14:47:54.772Z,7.61
2023-01-08T14:50:29.675Z,7.60
2023-01-08T14:53:07.890Z,7.57
2023-01-08T14:55:47.213Z,7.54
2023-01-08T14:58:21.874Z,7.52
2023-01-08T15:00:58.455Z,7.49
2023-01-08T15:03:36.319Z,7.44
2023-01-08T15:06:11.492Z,7.41
2023-01-08T15:08:45.028Z,7.39
2023-01-08T15:11:25.640Z,7.38
2023-01-08T15:13:58.464Z,7.38
2023-01-08T15:16:34.033Z,7.35
2023-01-08T15:19:12.371Z,7.32
2023-01-08T15:21:48.563Z,7.26
2023-01-08T15:24:26.237Z,7.19
2023-01-08T15:27:00.741Z,7.14
2023-01-08T15:29:34.301Z,7.09
2023-01-08T15:32:21.577Z,7.07
2023-01-08T15:34:53.599Z,7.04
2023-01-08T15:37:25.405Z,7.03
2023-01-08T15:39:57.380Z,7.02
2023-01-08T15:42:50.941Z,7.00
2023-01-08T15:45:29.078Z,7.00
2023-01-08T15:48:01.205Z,7.01
2023-01-08T15:50:38.937Z,7.01
2023-01-08T15:53:14.540Z,7.02
2023-01-08T15:55:47.102Z,7.02
2023-01-08T15:58:19.551Z,7.02
2023-01-08T16:00:51.573Z,7.00
2023-01-08T16:03:25.547Z,7.00
2023-01-08T16:05:57.631Z,6.99
2023-01-08T16:08:29.496Z,7.00
2023-01-08T16:11:01.476Z,7.00
2023-01-08T16:13:33.359Z,7.01
2023-01-08T16:16:10.022Z,7.03
2023-01-08T16:18:42.224Z,7.03
2023-01-08T16:21:14.782Z,7.02
2023-01-08T16:23:46.745Z,7.00
2023-01-08T16:26:19.066Z,6.97
2023-01-08T16:28:51.370Z,6.97
2023-01-08T16:31:23.625Z,6.96
2023-01-08T16:33:55.585Z,6.96
2023-01-08T16:36:27.600Z,6.97
2023-01-08T16:38:59.632Z,6.97
2023-01-08T16:41:31.718Z,6.97
2023-01-08T16:44:03.746Z,6.99
2023-01-08T16:46:35.775Z,6.98
2023-01-08T16:49:10.396Z,7.00
2023-01-08T16:51:42.345Z,7.02
2023-01-08T16:54:16.224Z,7.02
2023-01-08T16:56:48.328Z,7.02
2023-01-08T16:59:23.583Z,7.03
2023-01-08T17:01:55.993Z,7.05
2023-01-08T17:04:29.552Z,7.06
2023-01-08T17:07:01.863Z,7.06
2023-01-08T17:09:34.051Z,7.08
2023-01-08T17:12:06.424Z,7.11
2023-01-08T17:14:38.559Z,7.13
2023-01-08T17:17:10.452Z,7.16
2023-01-08T17:19:42.304Z,7.20
2023-01-08T17:22:14.760Z,7.23
2023-01-08T17:24:46.794Z,7.27
2023-01-08T17:27:18.639Z,7.30
2023-01-08T17:29:50.606Z,7.32
2023-01-08T17:32:22.956Z,7.34
2023-01-08T17:34:54.844Z,7.35
2023-01-08T17:37:26.868Z,7.36
2023-01-08T17:39:59.100Z,7.36
2023-01-08T17:42:31.531Z,7.37
2023-01-08T17:45:05.867Z,7.39
2023-01-08T17:47:39.228Z,7.41
2023-01-08T17:50:15.524Z,7.43
2023-01-08T17:52:47.391Z,7.43
2023-01-08T17:55:19.359Z,7.45
2023-01-08T17:57:51.219Z,7.46
2023-01-08T18:00:25.179Z,7.46
2023-01-08T18:02:57.410Z,7.48
2023-01-08T18:05:29.631Z,7.48
2023-01-08T18:08:01.660Z,7.47
2023-01-08T18:10:33.745Z,7.47
2023-01-08T18:13:05.707Z,7.46
2023-01-08T18:15:37.750Z,7.46
2023-01-08T18:18:09.895Z,7.46
2023-01-08T18:20:42.963Z,7.45
2023-01-08T18:23:14.881Z,7.46
2023-01-08T18:25:46.772Z,7.45
2023-01-08T18:28:18.799Z,7.43
2023-01-08T18:30:50.812Z,7.42
2023-01-08T18:33:23.034Z,7.40
2023-01-08T18:35:54.936Z,7.40
2023-01-08T18:38:26.942Z,7.40
2023-01-08T18:41:00.436Z,7.38
2023-01-08T18:43:32.758Z,7.36
2023-01-08T18:46:06.296Z,7.34
2023-01-08T18:48:38.626Z,7.33
2023-01-08T18:51:10.665Z,7.33
2023-01-08T18:53:42.937Z,7.34
2023-01-08T18:56:20.632Z,7.35
2023-01-08T18:58:52.615Z,7.35
2023-01-08T19:01:25.026Z,7.30
2023-01-08T19:03:57.339Z,7.29
2023-01-08T19:06:29.170Z,7.28
2023-01-08T19:09:01.885Z,7.27
2023-01-08T19:11:33.756Z,7.25
2023-01-08T19:14:05.667Z,7.24
2023-01-08T19:16:37.596Z,7.17
2023-01-08T19:19:09.443Z,7.14
2023-01-08T19:21:41.642Z,7.10
2023-01-08T19:24:14.360Z,7.05
2023-01-08T19:26:46.561Z,7.04
2023-01-08T19:29:18.602Z,7.05
2023-01-08T19:31:50.830Z,7.06
2023-01-08T19:34:23.028Z,7.08
2023-01-08T19:36:55.456Z,7.07
2023-01-08T19:39:30.029Z,7.04
2023-01-08T19:42:19.591Z,7.05
2023-01-08T19:44:51.570Z,7.02
2023-01-08T19:47:23.724Z,7.01
2023-01-08T19:49:55.674Z,7.00
2023-01-08T19:52:28.544Z,6.99
2023-01-08T19:55:01.637Z,6.97
2023-01-08T19:57:55.223Z,6.97
2023-01-08T20:00:36.186Z,6.97
2023-01-08T20:03:08.383Z,6.96
2023-01-08T20:05:44.681Z,6.93
2023-01-08T20:08:16.516Z,6.93
2023-01-08T20:10:48.474Z,6.93
2023-01-08T20:13:20.548Z,6.93
2023-01-08T20:15:59.252Z,6.92
2023-01-08T20:18:31.432Z,6.91
2023-01-08T20:21:08.533Z,6.89
2023-01-08T20:23:40.690Z,6.87
2023-01-08T20:26:15.324Z,6.83
2023-01-08T20:28:49.514Z,6.81
2023-01-08T20:31:23.535Z,6.79
2023-01-08T20:33:56.640Z,6.76
2023-01-08T20:36:32.240Z,6.73
2023-01-08T20:39:06.239Z,6.70
2023-01-08T20:41:38.280Z,6.67
2023-01-08T20:44:10.273Z,6.62
2023-01-08T20:46:42.625Z,6.58
2023-01-08T20:49:18.345Z,6.54
2023-01-08T20:51:58.509Z,6.49
2023-01-08T20:54:32.023Z,6.43
2023-01-08T20:57:04.103Z,6.36
2023-01-08T20:59:36.212Z,6.33
2023-01-08T21:02:08.343Z,6.29
2023-01-08T21:04:41.673Z,6.26
2023-01-08T21:07:13.711Z,6.22
2023-01-08T21:09:46.332Z,6.20
2023-01-08T21:12:18.277Z,6.15
2023-01-08T21:14:50.194Z,6.09
2023-01-08T21:17:21.991Z,6.04
2023-01-08T21:19:53.969Z,6.01
2023-01-08T21:22:25.955Z,5.97
2023-01-08T21:24:57.869Z,5.92
2023-01-08T21:27:29.677Z,5.84
2023-01-08T21:30:01.547Z,5.77
2023-01-08T21:32:33.403Z,5.68
2023-01-08T21:35:05.618Z,5.60
2023-01-08T21:37:37.980Z,5.58
2023-01-08T21:40:15.298Z,5.59
2023-01-08T21:43:11.534Z,5.63
2023-01-08T21:45:43.801Z,5.68
2023-01-08T21:48:15.670Z,5.72
2023-01-08T21:50:47.720Z,5.74
2023-01-08T21:53:36.275Z,5.68
2023-01-08T21:56:08.742Z,5.47
2023-01-08T21:58:40.574Z,5.33
2023-01-08T22:01:12.795Z,5.30
2023-01-08T22:03:44.838Z,5.22
2023-01-08T22:06:16.690Z,5.14
2023-01-08T22:08:56.215Z,5.07
2023-01-08T22:11:28.797Z,5.06
2023-01-08T22:14:00.829Z,5.09
2023-01-08T22:16:32.813Z,5.13
2023-01-08T22:19:05.167Z,5.17
2023-01-08T22:21:37.003Z,5.21
2023-01-08T22:24:09.254Z,5.26
2023-01-08T22:26:41.151Z,5.28
2023-01-08T22:29:13.008Z,5.23
2023-01-08T22:31:44.916Z,5.20
2023-01-08T22:34:17.473Z,5.17
2023-01-08T22:36:50.866Z,5.16
2023-01-08T22:39:22.771Z,5.12
2023-01-08T22:41:54.660Z,5.11
2023-01-08T22:44:26.544Z,5.04
2023-01-08T22:47:00.100Z,4.99
2023-01-08T22:49:33.644Z,4.98
2023-01-08T22:52:05.939Z,4.99
2023-01-08T22:54:38.023Z,4.99
2023-01-08T22:57:10.358Z,4.93
2023-01-08T22:59:42.392Z,4.80
2023-01-08T23:02:14.423Z,4.72
2023-01-08T23:04:46.474Z,4.70
2023-01-08T23:07:18.355Z,4.72
2023-01-08T23:09:50.775Z,4.71
2023-01-08T23:12:22.621Z,4.71
2023-01-08T23:14:54.921Z,4.65
2023-01-08T23:17:26.841Z,4.63
2023-01-08T23:19:58.676Z,4.59
2023-01-08T23:22:33.495Z,4.52
2023-01-08T23:25:05.923Z,4.47
2023-01-08T23:27:38.281Z,4.46
2023-01-08T23:30:17.689Z,4.50
2023-01-08T23:32:49.535Z,4.57
2023-01-08T23:35:21.395Z,4.59
2023-01-08T23:37:53.624Z,4.60
2023-01-08T23:40:29.317Z,4.62
2023-01-08T23:43:01.392Z,4.64
2023-01-08T23:45:35.784Z,4.64
2023-01-08T23:48:08.876Z,4.51
2023-01-08T23:50:40.929Z,4.41
2023-01-08T23:53:12.759Z,4.39
2023-01-08T23:55:44.568Z,4.38
2023-01-08T23:58:16.765Z,4.32
